createdAt,value
2022-08-26T00:01:15.756Z,12.7
2022-08-26T00:03:13.325Z,12.4
2022-08-26T00:05:10.873Z,12.2
2022-08-26T00:17:04.204Z,12.2
2022-08-26T00:19:01.755Z,11.5
2022-08-26T00:20:59.280Z,9.2
2022-08-26T00:25:02.335Z,10.7
2022-08-26T00:28:57.489Z,10
2022-08-26T00:30:55.010Z,8.9
2022-08-26T00:32:52.582Z,9.9
2022-08-26T00:34:50.152Z,8.9
2022-08-26T00:36:47.702Z,9.7
2022-08-26T00:38:53.246Z,9.8
2022-08-26T00:40:50.786Z,10.4
2022-08-26T00:42:48.378Z,10.3
2022-08-26T00:43:51.170Z,9.9
2022-08-26T00:45:48.809Z,8.2
2022-08-26T00:47:46.298Z,9.7
2022-08-26T00:49:43.850Z,7.7
2022-08-26T00:51:49.376Z,10.1
2022-08-26T00:53:46.934Z,9.8
2022-08-26T00:55:44.506Z,11.6
2022-08-26T00:57:42.077Z,9.4
2022-08-26T00:59:39.642Z,6.9
2022-08-26T01:01:37.217Z,9.8
2022-08-26T01:03:34.785Z,9.5
2022-08-26T01:07:37.867Z,7.9
2022-08-26T01:09:35.408Z,6.7
2022-08-26T01:11:32.991Z,6.8
2022-08-26T01:13:30.567Z,6.9
2022-08-26T01:17:25.701Z,7.2
2022-08-26T01:19:31.252Z,8.2
2022-08-26T01:21:28.810Z,7.8
2022-08-26T01:23:26.362Z,6.4
2022-08-26T01:25:23.900Z,5.9
2022-08-26T01:27:21.460Z,6.7
2022-08-26T01:33:22.091Z,10.3
2022-08-26T01:37:17.233Z,7.1
2022-08-26T01:42:15.108Z,6.7
2022-08-26T01:44:12.641Z,7.7
2022-08-26T01:50:13.270Z,8.5
2022-08-26T01:52:10.823Z,6.3
2022-08-26T01:54:08.389Z,5.6
2022-08-26T01:56:05.968Z,5.9
2022-08-26T01:58:03.552Z,5.4
2022-08-26T02:00:09.072Z,5.8
2022-08-26T02:02:06.617Z,4.9
2022-08-26T02:04:04.185Z,5.8
2022-08-26T02:06:01.736Z,5.6
2022-08-26T02:07:59.326Z,5
2022-08-26T02:09:56.899Z,6.5
2022-08-26T02:13:59.982Z,5.8
2022-08-26T02:15:57.760Z,5.3
2022-08-26T02:17:55.269Z,6.5
2022-08-26T02:19:52.843Z,6.4
2022-08-26T02:21:51.222Z,5.3
2022-08-26T02:23:47.938Z,4.8
2022-08-26T02:25:45.620Z,6.7
2022-08-26T02:27:51.059Z,4.3
2022-08-26T02:29:48.626Z,4.8
2022-08-26T02:31:46.215Z,5.2
2022-08-26T02:34:08.910Z,4.6
2022-08-26T02:36:06.490Z,5.3
2022-08-26T02:38:04.107Z,4.3
2022-08-26T02:44:04.753Z,4.6
2022-08-26T02:46:02.651Z,4.5
2022-08-26T02:47:59.880Z,4.1
2022-08-26T02:51:55.036Z,4.2
2022-08-26T02:54:00.573Z,4.5
2022-08-26T02:55:58.174Z,4.3
2022-08-26T02:59:53.303Z,3.7
2022-08-26T03:01:50.915Z,6.6
2022-08-26T03:11:46.744Z,3.1
2022-08-26T03:13:44.303Z,3.8
2022-08-26T03:15:41.879Z,4.9
2022-08-26T03:17:39.465Z,2.2
2022-08-26T03:19:37.038Z,4.8
2022-08-26T03:21:42.577Z,2.2
2022-08-26T03:23:40.181Z,2.4
2022-08-26T03:25:37.744Z,2.7
2022-08-26T03:28:38.065Z,2.5
2022-08-26T03:30:35.663Z,2.1
2022-08-26T03:32:33.227Z,2.9
2022-08-26T03:34:38.785Z,2.3
2022-08-26T03:36:36.372Z,4
2022-08-26T03:38:33.936Z,2.4
2022-08-26T03:40:31.639Z,2.3
2022-08-26T03:42:29.089Z,1.9
2022-08-26T03:44:26.681Z,1.8
2022-08-26T03:46:24.291Z,4.3
2022-08-26T03:48:29.760Z,3.4
2022-08-26T03:50:27.323Z,2.2
2022-08-26T03:58:17.642Z,2.5
2022-08-26T04:00:15.226Z,1.9
2022-08-26T04:02:20.783Z,3.8
2022-08-26T04:04:18.353Z,1.4
2022-08-26T04:06:15.929Z,2.3
2022-08-26T04:08:15.067Z,2
2022-08-26T04:10:12.620Z,2.1
2022-08-26T04:12:10.223Z,2
2022-08-26T04:14:07.798Z,2.1
2022-08-26T04:16:13.421Z,2.1
2022-08-26T04:18:10.901Z,1.5
2022-08-26T04:20:08.499Z,1.5
2022-08-26T04:21:11.267Z,3.5
2022-08-26T04:23:09.045Z,1.8
2022-08-26T04:25:06.782Z,1.7
2022-08-26T04:27:04.041Z,1.9
2022-08-26T04:29:09.570Z,2.9
2022-08-26T04:31:07.201Z,1.5
2022-08-26T04:33:13.149Z,2.5
2022-08-26T04:35:02.318Z,1.4
2022-08-26T04:36:59.848Z,1.4
2022-08-26T04:38:57.449Z,1.3
2022-08-26T04:40:55.005Z,3
2022-08-26T04:43:00.636Z,1.7
2022-08-26T04:44:58.139Z,1.4
2022-08-26T04:46:55.750Z,1.4
2022-08-26T04:48:53.288Z,1.6
2022-08-26T04:50:50.899Z,1.7
2022-08-26T04:54:46.045Z,2.3
2022-08-26T04:58:49.141Z,2.1
2022-08-26T05:00:46.747Z,1.7
2022-08-26T05:02:44.333Z,1.2
2022-08-26T05:04:41.886Z,1.3
2022-08-26T05:06:39.492Z,1.6
2022-08-26T05:08:37.079Z,1.7
2022-08-26T05:10:42.576Z,1.3
2022-08-26T05:12:40.150Z,2.3
2022-08-26T05:14:37.700Z,1.5
2022-08-26T05:17:38.090Z,1.6
2022-08-26T05:19:35.634Z,1
2022-08-26T05:21:33.202Z,2.3
2022-08-26T05:23:38.715Z,2
2022-08-26T05:25:36.272Z,1.3
2022-08-26T05:27:33.831Z,2.5
2022-08-26T05:31:29.051Z,1.9
2022-08-26T05:35:24.104Z,1.7
2022-08-26T05:37:29.633Z,2
2022-08-26T05:39:27.179Z,1.5
2022-08-26T05:41:24.750Z,2
2022-08-26T05:45:19.879Z,1.6
2022-08-26T05:47:17.437Z,1.7
2022-08-26T05:49:15.019Z,3.6
2022-08-26T05:51:25.335Z,1.4
2022-08-26T05:53:18.110Z,2.5
2022-08-26T05:55:15.681Z,1.6
2022-08-26T05:57:13.241Z,1.7
2022-08-26T05:59:14.076Z,1.9
2022-08-26T06:01:08.359Z,2.2
2022-08-26T06:03:05.990Z,0.9
2022-08-26T06:05:11.927Z,2
2022-08-26T06:07:09.893Z,1.4
2022-08-26T06:09:06.637Z,1.7
2022-08-26T06:11:33.538Z,1.4
2022-08-26T06:13:31.964Z,2
2022-08-26T06:17:34.167Z,1.4
2022-08-26T06:19:33.053Z,1.9
2022-08-26T06:21:29.306Z,2
2022-08-26T06:25:24.439Z,1.2
2022-08-26T06:27:21.985Z,2
2022-08-26T06:29:24.584Z,2
2022-08-26T06:31:25.148Z,1.9
2022-08-26T06:33:22.645Z,2.2
2022-08-26T06:35:20.211Z,3.7
2022-08-26T06:37:17.813Z,3.3
2022-08-26T06:39:15.368Z,2.9
2022-08-26T06:41:12.931Z,2.6
2022-08-26T06:43:10.478Z,1.7
2022-08-26T06:45:16.012Z,2
2022-08-26T06:47:13.571Z,5.5
2022-08-26T06:49:11.143Z,1.2
2022-08-26T06:55:03.864Z,1.8
2022-08-26T06:57:01.335Z,1.9
2022-08-26T06:59:07.707Z,1.6
2022-08-26T07:01:11.385Z,1.7
2022-08-26T07:04:04.725Z,2.1
2022-08-26T07:06:02.294Z,1.1
2022-08-26T07:07:59.837Z,1.5
2022-08-26T07:09:57.574Z,1.2
2022-08-26T07:12:03.094Z,4.8
2022-08-26T07:14:00.447Z,1.8
2022-08-26T07:15:58.168Z,1.8
2022-08-26T07:17:55.562Z,1.2
2022-08-26T07:19:53.117Z,1.4
2022-08-26T07:21:50.639Z,4.3
2022-08-26T07:23:48.202Z,1.8
2022-08-26T07:25:53.697Z,1.4
2022-08-26T07:33:43.907Z,1
2022-08-26T07:37:39.239Z,1
2022-08-26T07:39:44.499Z,0.7
2022-08-26T07:41:42.074Z,1.5
2022-08-26T07:43:39.572Z,1.3
2022-08-26T07:45:37.108Z,1.9
2022-08-26T07:47:34.642Z,1.3
2022-08-26T07:49:32.244Z,1.1
2022-08-26T07:51:29.709Z,1.3
2022-08-26T07:53:35.218Z,1.2
2022-08-26T07:55:32.759Z,1.6
2022-08-26T07:57:30.285Z,1.6
2022-08-26T07:58:33.042Z,1.3
2022-08-26T08:00:30.594Z,0.9
2022-08-26T08:02:28.141Z,2
2022-08-26T08:04:26.684Z,1.1
2022-08-26T08:06:31.189Z,1.1
2022-08-26T08:08:29.179Z,1.2
2022-08-26T08:10:26.640Z,0.9
2022-08-26T08:12:23.748Z,1.4
2022-08-26T08:14:22.373Z,2
2022-08-26T08:16:18.842Z,1.1
2022-08-26T08:20:21.812Z,1.6
2022-08-26T08:22:19.724Z,1.4
2022-08-26T08:24:16.857Z,1.6
2022-08-26T08:26:14.369Z,1.7
2022-08-26T08:28:11.880Z,1.4
2022-08-26T08:30:09.422Z,1
2022-08-26T08:32:11.559Z,1.5
2022-08-26T08:34:12.454Z,0.7
2022-08-26T08:36:09.963Z,1.1
2022-08-26T08:38:07.565Z,1
2022-08-26T08:40:05.076Z,1.3
2022-08-26T08:42:02.562Z,1.5
2022-08-26T08:44:00.101Z,1
2022-08-26T08:45:57.617Z,1.9
2022-08-26T08:48:03.074Z,1.3
2022-08-26T08:50:00.596Z,1.4
2022-08-26T08:51:58.116Z,2.1
2022-08-26T08:54:58.382Z,1.1
2022-08-26T08:56:55.942Z,1.3
2022-08-26T08:58:53.485Z,1.3
2022-08-26T09:00:58.955Z,1.5
2022-08-26T09:02:56.455Z,1.2
2022-08-26T09:04:53.983Z,1.4
2022-08-26T09:06:51.575Z,1.3
2022-08-26T09:08:50.096Z,5.3
2022-08-26T09:10:46.544Z,1.4
2022-08-26T09:12:44.070Z,1.3
2022-08-26T09:16:47.160Z,1
2022-08-26T09:18:46.159Z,1.4
2022-08-26T09:20:42.170Z,1.9
2022-08-26T09:22:39.681Z,1
2022-08-26T09:24:41.824Z,1.6
2022-08-26T09:26:34.734Z,1.8
2022-08-26T09:28:40.253Z,1.3
2022-08-26T09:30:37.833Z,14.7
2022-08-26T09:32:35.295Z,3
2022-08-26T09:36:30.337Z,1.8
2022-08-26T09:38:28.152Z,1.4
2022-08-26T09:42:30.908Z,1.3
2022-08-26T09:44:28.423Z,1.3
2022-08-26T09:48:51.709Z,1.8
2022-08-26T09:50:48.094Z,1.4
2022-08-26T09:56:48.648Z,3.3
2022-08-26T10:00:43.711Z,1.3
2022-08-26T10:02:41.571Z,1.7
2022-08-26T10:04:38.800Z,1.8
2022-08-26T10:06:36.282Z,1
2022-08-26T10:08:41.785Z,2.4
2022-08-26T10:10:39.291Z,1.1
2022-08-26T10:12:36.803Z,2.2
2022-08-26T10:14:34.423Z,1.4
2022-08-26T10:16:31.893Z,2.6
2022-08-26T10:18:33.663Z,1.6
2022-08-26T10:20:26.941Z,1.1
2022-08-26T10:22:32.441Z,1.6
2022-08-26T10:24:29.955Z,3
2022-08-26T10:26:27.489Z,1.7
2022-08-26T10:28:24.986Z,1.3
2022-08-26T10:32:20.089Z,2.1
2022-08-26T10:34:17.585Z,3.1
2022-08-26T10:36:23.066Z,2.1
2022-08-26T10:40:18.170Z,1.1
2022-08-26T10:41:20.849Z,0.7
2022-08-26T10:43:18.374Z,1
2022-08-26T10:45:15.864Z,1.6
2022-08-26T10:51:16.379Z,0.3
2022-08-26T10:53:13.925Z,0.8
2022-08-26T10:55:11.438Z,1.6
2022-08-26T10:57:09.595Z,0.9
2022-08-26T10:59:06.464Z,1
2022-08-26T11:01:10.168Z,0.5
2022-08-26T11:03:09.585Z,1.3
2022-08-26T11:05:06.975Z,1.5
2022-08-26T11:07:04.482Z,1.1
2022-08-26T11:09:02.129Z,1.1
2022-08-26T11:10:59.511Z,1.7
2022-08-26T11:12:57.008Z,1.8
2022-08-26T11:14:59.053Z,1.9
2022-08-26T11:17:00.082Z,1.2
2022-08-26T11:18:57.491Z,2.6
2022-08-26T11:24:49.978Z,1.2
2022-08-26T11:26:56.367Z,1.2
2022-08-26T11:28:44.972Z,0.5
2022-08-26T11:30:56.996Z,1.1
2022-08-26T11:32:48.741Z,0.8
2022-08-26T11:34:45.435Z,0.8
2022-08-26T11:41:40.670Z,0.8
2022-08-26T11:47:42.005Z,1.1
2022-08-26T11:49:38.586Z,0.9
2022-08-26T11:51:40.453Z,0.7
2022-08-26T11:53:33.637Z,0.5
2022-08-26T11:55:31.091Z,3.7
2022-08-26T11:57:36.543Z,0.8
2022-08-26T12:03:29.218Z,0.5
2022-08-26T12:07:24.453Z,1.2
2022-08-26T12:09:21.537Z,1.7
2022-08-26T12:15:21.982Z,0.7
2022-08-26T12:17:19.477Z,1
2022-08-26T12:19:17.005Z,1.6
2022-08-26T12:21:14.463Z,1
2022-08-26T12:23:11.965Z,0.7
2022-08-26T12:25:17.437Z,0.8
2022-08-26T12:27:14.911Z,1.4
2022-08-26T12:29:20.177Z,0.7
2022-08-26T12:30:15.182Z,2.8
2022-08-26T12:32:12.698Z,1.3
2022-08-26T12:34:17.678Z,0.9
2022-08-26T12:36:07.672Z,1.8
2022-08-26T12:38:13.174Z,1.4
2022-08-26T12:40:10.691Z,1.5
2022-08-26T12:42:08.080Z,1.1
2022-08-26T12:44:05.585Z,1
2022-08-26T12:46:03.188Z,1.7
2022-08-26T12:48:00.583Z,1
2022-08-26T12:52:03.584Z,1.2
2022-08-26T12:54:01.051Z,1.6
2022-08-26T12:55:58.637Z,1.9
2022-08-26T12:57:56.066Z,1.5
2022-08-26T12:59:53.581Z,1.1
2022-08-26T13:01:51.279Z,1.1
2022-08-26T13:03:48.653Z,1.7
2022-08-26T13:05:54.097Z,1
2022-08-26T13:09:49.154Z,1.3
2022-08-26T13:11:46.686Z,0.8
2022-08-26T13:13:44.183Z,1.3
2022-08-26T13:15:41.697Z,1.7
2022-08-26T13:17:39.210Z,0.6
2022-08-26T13:21:42.220Z,0.6
2022-08-26T13:23:42.548Z,1.3
2022-08-26T13:26:06.593Z,0.3
2022-08-26T13:28:04.145Z,2.7
2022-08-26T13:30:01.653Z,1.2
2022-08-26T13:32:07.222Z,1
2022-08-26T13:34:04.647Z,4.7
2022-08-26T13:36:02.164Z,1.2
2022-08-26T13:37:59.663Z,0.7
2022-08-26T13:49:52.754Z,1.2
2022-08-26T13:51:50.220Z,1
2022-08-26T13:53:47.791Z,1.1
2022-08-26T13:57:42.805Z,0.8
2022-08-26T14:03:43.271Z,3.1
2022-08-26T14:05:40.763Z,2.6
2022-08-26T14:07:38.238Z,1.1
2022-08-26T14:09:38.438Z,0.5
2022-08-26T14:11:37.002Z,1.1
2022-08-26T14:13:38.713Z,1.3
2022-08-26T14:17:33.730Z,0.8
2022-08-26T14:18:41.519Z,0.6
2022-08-26T14:20:34.001Z,1.3
2022-08-26T14:24:28.971Z,1.3
2022-08-26T14:26:34.484Z,1
2022-08-26T14:30:29.491Z,1
2022-08-26T14:32:26.984Z,2.2
2022-08-26T14:34:24.531Z,1.7
2022-08-26T14:36:21.984Z,0.5
2022-08-26T14:40:25.009Z,1.9
2022-08-26T14:42:22.476Z,1
2022-08-26T14:44:19.948Z,1.6
2022-08-26T14:48:14.942Z,1.5
2022-08-26T14:50:12.456Z,1.1
2022-08-26T14:52:09.978Z,1.3
2022-08-26T14:56:16.595Z,1
2022-08-26T14:58:10.678Z,2.3
2022-08-26T15:04:03.074Z,1.6
2022-08-26T15:06:00.585Z,0.9
2022-08-26T15:10:03.651Z,1.7
2022-08-26T15:12:01.206Z,1.2
2022-08-26T15:13:03.865Z,0.9
2022-08-26T15:15:01.583Z,1.3
2022-08-26T15:16:58.943Z,1.5
2022-08-26T15:18:56.452Z,0.7
2022-08-26T15:21:01.935Z,0.9
2022-08-26T15:23:03.329Z,1.1
2022-08-26T15:24:57.050Z,1.5
2022-08-26T15:26:54.579Z,1.7
2022-08-26T15:28:52.097Z,1.5
2022-08-26T15:30:51.283Z,1.6
2022-08-26T15:32:48.648Z,1.2
2022-08-26T15:34:54.147Z,8
2022-08-26T15:38:49.233Z,0.8
2022-08-26T15:42:44.247Z,1.7
2022-08-26T15:44:41.787Z,1.8
2022-08-26T15:46:39.452Z,0.7
2022-08-26T15:52:39.953Z,1.1
2022-08-26T15:54:37.500Z,1.3
2022-08-26T15:56:35.014Z,1.3
2022-08-26T15:58:32.556Z,1.2
2022-08-26T16:00:30.109Z,1
2022-08-26T16:02:35.604Z,1.7
2022-08-26T16:04:33.109Z,1.6
2022-08-26T16:06:30.611Z,0.9
2022-08-26T16:09:30.919Z,1.3
2022-08-26T16:13:25.960Z,2.4
2022-08-26T16:15:31.459Z,1.8
2022-08-26T16:17:29.018Z,0.8
2022-08-26T16:19:26.551Z,1.9
2022-08-26T16:23:21.582Z,1.3
2022-08-26T16:25:19.119Z,3.2
2022-08-26T16:27:16.670Z,2.2
2022-08-26T16:29:22.162Z,1.8
2022-08-26T16:33:21.533Z,1.5
2022-08-26T16:39:09.840Z,1.9
2022-08-26T16:41:07.360Z,2.7
2022-08-26T16:47:07.896Z,1.8
2022-08-26T16:53:00.667Z,1.3
2022-08-26T16:54:58.068Z,1.8
2022-08-26T16:57:03.580Z,1.2
2022-08-26T16:59:01.033Z,1.6
2022-08-26T17:00:58.553Z,2.8
2022-08-26T17:03:26.316Z,1.2
2022-08-26T17:05:23.880Z,1.1
2022-08-26T17:07:21.405Z,1.2
2022-08-26T17:09:26.966Z,1.8
2022-08-26T17:11:24.472Z,1.5
2022-08-26T17:13:34.898Z,1.2
2022-08-26T17:15:19.708Z,1.6
2022-08-26T17:17:21.857Z,2.2
2022-08-26T17:19:14.700Z,1.5
2022-08-26T17:21:12.222Z,1.4
2022-08-26T17:23:17.711Z,3.6
2022-08-26T17:25:15.227Z,2.4
2022-08-26T17:27:12.744Z,1.2
2022-08-26T17:29:10.398Z,0.9
2022-08-26T17:31:07.888Z,1.5
2022-08-26T17:33:10.615Z,1.6
2022-08-26T17:35:03.081Z,0.9
2022-08-26T17:37:08.527Z,2.4
2022-08-26T17:39:05.925Z,5
2022-08-26T17:41:04.154Z,2.9
2022-08-26T17:46:56.771Z,3.1
2022-08-26T17:48:54.347Z,3.3
2022-08-26T17:52:57.581Z,2.9
2022-08-26T17:54:54.929Z,4.1
2022-08-26T17:55:57.811Z,2.7
2022-08-26T17:57:55.246Z,3.6
2022-08-26T17:59:52.853Z,5.4
2022-08-26T18:01:50.465Z,3.1
2022-08-26T18:04:00.164Z,3.6
2022-08-26T18:05:53.398Z,4.2
2022-08-26T18:07:50.943Z,2
2022-08-26T18:09:48.495Z,2.8
2022-08-26T18:11:46.041Z,3.8
2022-08-26T18:13:47.048Z,2.9
2022-08-26T18:17:46.669Z,3.6
2022-08-26T18:19:44.257Z,3.5
2022-08-26T18:21:41.787Z,1.9
2022-08-26T18:25:36.904Z,2.7
2022-08-26T18:27:34.452Z,2.8
2022-08-26T18:29:32.019Z,2
2022-08-26T18:33:35.074Z,2.4
2022-08-26T18:35:32.673Z,2.1
2022-08-26T18:37:31.606Z,2.1
2022-08-26T18:39:27.763Z,2
2022-08-26T18:41:25.368Z,2.8
2022-08-26T18:43:22.875Z,2.1
2022-08-26T18:45:28.435Z,4
2022-08-26T18:47:25.995Z,2.6
2022-08-26T18:49:23.599Z,1.9
2022-08-26T18:52:23.941Z,2.3
2022-08-26T18:54:21.871Z,2.5
2022-08-26T18:56:19.100Z,1.5
2022-08-26T18:58:24.628Z,3.4
2022-08-26T19:00:22.204Z,2.6
2022-08-26T19:02:19.863Z,2.3
2022-08-26T19:04:17.328Z,3.1
2022-08-26T19:06:14.991Z,2.4
2022-08-26T19:08:12.495Z,2.5
2022-08-26T19:10:10.278Z,2.4
2022-08-26T19:12:15.663Z,2
2022-08-26T19:14:13.177Z,2
2022-08-26T19:18:08.355Z,1.7
2022-08-26T19:20:05.878Z,1.9
2022-08-26T19:24:01.143Z,1.2
2022-08-26T19:26:06.574Z,2
2022-08-26T19:28:04.113Z,2
2022-08-26T19:30:01.926Z,2
2022-08-26T19:31:59.296Z,1.4
2022-08-26T19:33:56.819Z,1.1
2022-08-26T19:35:54.394Z,1.2
2022-08-26T19:37:51.976Z,1.4
2022-08-26T19:39:57.571Z,2.1
2022-08-26T19:41:55.100Z,2.1
2022-08-26T19:43:52.665Z,1.3
2022-08-26T19:44:55.479Z,2.1
2022-08-26T19:46:53.033Z,1.5
2022-08-26T19:50:48.142Z,2.2
2022-08-26T19:52:53.686Z,1.5
2022-08-26T19:54:51.239Z,2.1
2022-08-26T19:56:49.824Z,1.4
2022-08-26T19:58:46.448Z,2.2
2022-08-26T20:00:43.987Z,2
2022-08-26T20:02:41.653Z,1.8
2022-08-26T20:04:39.159Z,1.6
2022-08-26T20:06:44.736Z,2.3
2022-08-26T20:08:42.332Z,1.7
2022-08-26T20:14:35.002Z,2.8
2022-08-26T20:16:32.667Z,2.9
2022-08-26T20:18:30.320Z,2.3
2022-08-26T20:20:35.731Z,1.8
2022-08-26T20:22:33.348Z,2.7
2022-08-26T20:28:26.100Z,1.8
2022-08-26T20:30:23.688Z,1.5
2022-08-26T20:32:21.326Z,2.3
2022-08-26T20:34:26.775Z,2.5
2022-08-26T20:38:21.987Z,1.9
2022-08-26T20:40:48.887Z,2
2022-08-26T20:44:49.406Z,2.9
2022-08-26T20:48:47.142Z,5.7
2022-08-26T20:50:44.715Z,3.4
2022-08-26T20:52:42.561Z,2
2022-08-26T20:54:39.848Z,4.4
2022-08-26T20:56:37.547Z,1.7
2022-08-26T20:58:34.974Z,2.1
2022-08-26T21:00:40.627Z,1.9
2022-08-26T21:02:38.103Z,1.3
2022-08-26T21:04:35.807Z,1.9
2022-08-26T21:06:33.322Z,2
2022-08-26T21:14:33.084Z,2.3
2022-08-26T21:22:23.411Z,1.4
2022-08-26T21:24:21.026Z,1.9
2022-08-26T21:26:18.597Z,1.6
2022-08-26T21:28:24.159Z,2.5
2022-08-26T21:30:21.735Z,2.2
2022-08-26T21:32:19.399Z,2.4
2022-08-26T21:33:22.094Z,1.2
2022-08-26T21:35:19.701Z,1.7
2022-08-26T21:37:17.291Z,2.9
2022-08-26T21:39:15.015Z,1.9
2022-08-26T21:41:20.436Z,1.4
2022-08-26T21:43:25.992Z,1.7
2022-08-26T21:45:15.590Z,1.9
2022-08-26T21:47:13.229Z,3
2022-08-26T21:49:10.834Z,2
2022-08-26T21:57:09.111Z,1.3
2022-08-26T21:59:06.690Z,1.7
2022-08-26T22:01:04.341Z,2.3
2022-08-26T22:04:59.432Z,1.7
2022-08-26T22:06:57.003Z,2.1
2022-08-26T22:09:02.627Z,1.9
2022-08-26T22:11:00.140Z,1.4
2022-08-26T22:14:55.313Z,1.9
2022-08-26T22:16:52.924Z,2.1
2022-08-26T22:22:53.614Z,2.6
2022-08-26T22:26:48.849Z,2
2022-08-26T22:27:51.620Z,1.8
2022-08-26T22:29:49.209Z,2.2
2022-08-26T22:31:46.877Z,2.2
2022-08-26T22:33:44.416Z,1.5
2022-08-26T22:35:49.954Z,2
2022-08-26T22:39:45.142Z,2
2022-08-26T22:41:42.719Z,2.2
2022-08-26T22:43:40.334Z,2.3
2022-08-26T22:45:37.974Z,2.9
2022-08-26T22:47:35.512Z,2.3
2022-08-26T22:49:41.073Z,1.3
2022-08-26T22:51:38.698Z,4.5
2022-08-26T22:53:36.297Z,1.6
2022-08-26T22:55:33.893Z,2
2022-08-26T23:03:32.318Z,2.2
2022-08-26T23:05:29.876Z,2.2
2022-08-26T23:07:27.454Z,1.7
2022-08-26T23:09:25.037Z,1.7
2022-08-26T23:11:22.652Z,2.1
2022-08-26T23:13:20.275Z,1.4
2022-08-26T23:15:17.897Z,1.9
2022-08-26T23:17:23.451Z,2.8
2022-08-26T23:19:21.103Z,2.8
2022-08-26T23:21:18.900Z,1.7
2022-08-26T23:24:19.111Z,2.2
2022-08-26T23:26:17.739Z,1.3
2022-08-26T23:28:14.316Z,1.6
2022-08-26T23:30:19.869Z,1.7
2022-08-26T23:32:17.492Z,2
2022-08-26T23:34:15.101Z,2.3
2022-08-26T23:36:17.458Z,2.1
2022-08-26T23:38:10.420Z,1.6
2022-08-26T23:40:07.993Z,1.5
2022-08-26T23:42:05.585Z,3.2
2022-08-26T23:44:11.093Z,2.3
2022-08-26T23:48:06.528Z,2.4
2022-08-26T23:50:03.963Z,1.7
2022-08-26T23:59:59.996Z,2.3
